Hampshire, Illinois
Current Conditions -  °F | °C
As of 2:15 PM on Sunday 23 Nov 2014 (Local Time) from KDKB Reporting Station
Overcast Overcast  
Wind Chill: 42°   Ceiling: 600
Heat Index: 47°   Visibility: NA
Dew Point: 46°   Wind: 12mph
Humidity: 96%   Direction: 150°SSE
Pressure: 29.49"   Gusts: NA
Location:  42.1°N, 88.53°W
Report Text: KDKB 232015Z AUTO 15010KT OVC006 08/08 A2949 RMK AO2 T00830077 PWINO
Loading
Personal Weather Stations






























Interactive Weather Map New forecast layout! Learn more

10-Day Weather Forecast

Advertisements
Track Severe Weather on mobile